Time;durP1;ratioP1;P1;durP2;ratioP2;P2;SDS_P1;SDS_P2;PMS_P1;PMS_P2;Temp;Humidity;BMP_temperature;BMP_pressure;BME280_temperature;BME280_humidity;BME280_pressure;Samples;Min_cycle;Max_cycle;Signal;HPM_P1;HPM_P2
2021/04/23 00:00:37;;;;;;;21.17;11.80;;;;;;;13.94;51.54;95281.41;5051125;28;20937;-64
2021/04/23 00:03:36;;;;;;;19.50;11.03;;;;;;;13.65;52.60;95277.00;5050350;28;20431;-66
2021/04/23 00:06:12;;;;;;;16.87;10.17;;;;;;;13.32;53.11;95277.53;5051461;28;20447;-65
2021/04/23 00:08:41;;;;;;;17.43;10.47;;;;;;;13.48;53.41;95277.25;5050537;28;20439;-65
2021/04/23 00:11:09;;;;;;;15.43;10.10;;;;;;;13.58;53.09;95276.44;5049550;28;20467;-66
2021/04/23 00:13:37;;;;;;;20.07;10.47;;;;;;;13.57;53.04;95280.94;5050160;28;20529;-69
2021/04/23 00:16:05;;;;;;;14.83;8.80;;;;;;;13.37;54.18;95280.94;5052027;28;20450;-67
2021/04/23 00:18:32;;;;;;;14.63;7.53;;;;;;;13.39;53.79;95275.41;5051070;28;20471;-68
2021/04/23 00:20:59;;;;;;;11.37;7.20;;;;;;;13.44;53.58;95281.47;5051557;28;20936;-67
2021/04/23 00:23:27;;;;;;;11.03;6.37;;;;;;;13.51;53.28;95275.94;5050344;28;21703;-68
2021/04/23 00:25:54;;;;;;;8.53;6.47;;;;;;;13.57;53.29;95280.16;5051268;28;20470;-68
2021/04/23 00:28:21;;;;;;;7.67;6.33;;;;;;;13.58;53.51;95271.19;5050759;28;20952;-67
2021/04/23 00:30:51;;;;;;;10.53;5.93;;;;;;;13.61;53.45;95270.69;5051351;28;20435;-66
2021/04/23 00:33:18;;;;;;;8.20;6.40;;;;;;;13.46;53.80;95268.84;5050651;28;20508;-66
2021/04/23 00:35:47;;;;;;;11.40;7.17;;;;;;;13.63;53.89;95277.22;5050987;28;20812;-68
2021/04/23 00:38:18;;;;;;;13.67;8.57;;;;;;;13.55;53.81;95266.47;5051042;28;20443;-66
2021/04/23 00:41:05;;;;;;;11.57;8.50;;;;;;;13.33;54.54;95289.63;5050999;28;20953;-69
2021/04/23 00:43:37;;;;;;;9.97;7.70;;;;;;;13.47;54.10;95286.19;5049945;28;20955;-67
2021/04/23 00:46:04;;;;;;;11.23;7.80;;;;;;;13.41;53.87;95271.44;5050847;28;20518;-66
2021/04/23 00:48:34;;;;;;;10.83;7.57;;;;;;;13.52;54.68;95273.03;5048747;28;20434;-68
2021/04/23 00:51:06;;;;;;;13.10;7.70;;;;;;;13.51;54.54;95283.81;5048750;28;20455;-68
2021/04/23 00:53:37;;;;;;;10.90;7.40;;;;;;;13.11;55.42;95261.72;5049318;28;20933;-69
2021/04/23 00:56:08;;;;;;;10.33;6.70;;;;;;;12.46;57.59;95279.94;5050171;28;20457;-67
2021/04/23 00:58:36;;;;;;;12.63;7.47;;;;;;;12.99;56.85;95287.44;5049646;28;20539;-69
2021/04/23 01:01:20;;;;;;;8.97;6.63;;;;;;;13.17;56.26;95292.22;5049893;28;20554;-66
2021/04/23 01:03:46;;;;;;;10.90;7.40;;;;;;;13.29;56.04;95278.03;5049505;28;20439;-68
2021/04/23 01:06:20;;;;;;;9.97;6.47;;;;;;;13.39;55.56;95272.78;5050262;28;20439;-68
2021/04/23 01:08:47;;;;;;;10.27;6.77;;;;;;;13.44;55.65;95285.94;5049247;28;20455;-67
2021/04/23 01:11:16;;;;;;;8.90;6.40;;;;;;;13.31;55.53;95281.19;5049891;28;20463;-67
2021/04/23 01:13:43;;;;;;;9.63;6.53;;;;;;;13.13;56.63;95296.44;5049129;28;20517;-69
2021/04/23 01:16:12;;;;;;;9.93;6.53;;;;;;;13.24;55.66;95294.63;5049929;28;20427;-66
2021/04/23 01:18:39;;;;;;;8.80;6.47;;;;;;;13.36;55.58;95305.66;5049366;28;20446;-67
2021/04/23 01:21:09;;;;;;;7.70;6.00;;;;;;;13.18;56.19;95304.34;5049552;28;20467;-68
2021/04/23 01:23:37;;;;;;;10.50;6.20;;;;;;;12.86;57.70;95309.00;5048735;28;20447;-66
2021/04/23 01:26:05;;;;;;;10.07;6.23;;;;;;;12.74;57.77;95308.41;5050181;28;20942;-67
2021/04/23 01:28:33;;;;;;;9.97;6.97;;;;;;;12.89;57.11;95294.50;5049377;28;20441;-67
2021/04/23 01:31:03;;;;;;;9.23;6.40;;;;;;;13.06;57.49;95306.41;5049821;28;20820;-68
2021/04/23 01:33:30;;;;;;;8.27;5.60;;;;;;;12.57;58.47;95320.97;5049590;28;20453;-66
2021/04/23 01:35:57;;;;;;;7.07;5.63;;;;;;;12.80;58.14;95317.91;5050160;28;20446;-65
2021/04/23 01:38:24;;;;;;;9.47;6.27;;;;;;;12.92;58.16;95315.81;5049419;28;20504;-67
2021/04/23 01:40:51;;;;;;;9.50;6.20;;;;;;;12.99;58.61;95316.38;5048267;28;20484;-66
2021/04/23 01:43:19;;;;;;;8.53;6.23;;;;;;;13.14;58.18;95313.00;5049179;28;20442;-66
2021/04/23 01:45:46;;;;;;;8.97;5.87;;;;;;;12.85;59.02;95310.03;5049798;28;20484;-66
2021/04/23 01:48:15;;;;;;;9.37;6.17;;;;;;;13.06;60.18;95327.47;5049542;28;20530;-66
2021/04/23 01:50:42;;;;;;;8.00;6.00;;;;;;;13.09;59.81;95332.22;5050551;28;20441;-66
2021/04/23 01:53:09;;;;;;;9.10;6.27;;;;;;;13.06;59.11;95298.53;5052764;28;20450;-67
2021/04/23 01:55:36;;;;;;;9.57;6.83;;;;;;;13.16;58.93;95309.06;5048384;28;20442;-68
2021/04/23 01:58:03;;;;;;;9.83;5.97;;;;;;;13.04;60.21;95303.28;5049215;28;20910;-67
2021/04/23 02:00:35;;;;;;;10.20;6.37;;;;;;;13.14;61.10;95337.50;5049890;28;20431;-67
2021/04/23 02:03:05;;;;;;;9.50;7.53;;;;;;;13.01;61.64;95330.06;5052095;28;20435;-66
2021/04/23 02:05:33;;;;;;;14.43;9.77;;;;;;;12.97;62.01;95339.50;5052987;28;20475;-67
2021/04/23 02:08:00;;;;;;;8.00;6.83;;;;;;;12.80;62.04;95338.94;5053769;28;20447;-67
2021/04/23 02:10:31;;;;;;;10.93;6.83;;;;;;;12.76;62.40;95332.63;5054018;28;20463;-67
2021/04/23 02:12:58;;;;;;;10.53;7.23;;;;;;;12.76;62.55;95327.34;5055005;28;20982;-69
2021/04/23 02:15:27;;;;;;;10.80;8.17;;;;;;;12.77;63.37;95344.69;5052675;28;20441;-66
2021/04/23 02:17:55;;;;;;;9.57;7.27;;;;;;;12.79;64.30;95342.59;5052683;28;20458;-67
2021/04/23 02:20:27;;;;;;;9.63;6.87;;;;;;;12.76;62.57;95345.75;5052861;28;20990;-67
2021/04/23 02:22:55;;;;;;;9.27;7.07;;;;;;;12.77;63.15;95343.94;5054111;28;20937;-67
2021/04/23 02:25:21;;;;;;;8.70;7.33;;;;;;;12.91;63.25;95340.56;5052981;28;20566;-68
2021/04/23 02:27:50;;;;;;;10.60;7.10;;;;;;;12.95;64.14;95336.38;5052756;28;20449;-66
2021/04/23 02:30:24;;;;;;;8.17;6.70;;;;;;;12.76;64.31;95332.63;5052490;28;20445;-66
2021/04/23 02:32:51;;;;;;;7.97;6.57;;;;;;;12.74;64.80;95339.97;5052432;28;20442;-65
2021/04/23 02:35:19;;;;;;;9.43;6.23;;;;;;;12.76;64.61;95343.13;5052869;28;20434;-66
2021/04/23 02:37:46;;;;;;;9.40;7.73;;;;;;;12.49;65.82;95337.25;5052445;28;20478;-65
2021/04/23 02:40:17;;;;;;;10.87;8.50;;;;;;;12.65;64.63;95336.25;5053164;28;20442;-67
2021/04/23 02:42:47;;;;;;;9.53;8.07;;;;;;;12.82;64.85;95342.09;5052612;28;20447;-67
2021/04/23 02:45:17;;;;;;;9.30;7.30;;;;;;;12.78;65.17;95345.50;5053118;28;20863;-67
2021/04/23 02:47:45;;;;;;;8.30;6.03;;;;;;;12.82;64.87;95352.63;5052776;28;20453;-66
2021/04/23 02:50:15;;;;;;;7.20;6.20;;;;;;;12.72;64.90;95357.03;5052912;28;21041;-67
2021/04/23 02:52:42;;;;;;;7.00;5.70;;;;;;;12.81;64.86;95356.28;5052376;28;20453;-67
2021/04/23 02:55:11;;;;;;;6.63;5.73;;;;;;;12.72;65.65;95363.09;5052755;28;20449;-68
2021/04/23 02:57:37;;;;;;;7.73;5.87;;;;;;;12.63;65.45;95356.75;5052911;28;20434;-65
2021/04/23 03:00:14;;;;;;;6.30;5.70;;;;;;;12.69;65.88;95353.09;5053889;28;20439;-67
2021/04/23 03:02:41;;;;;;;6.73;5.33;;;;;;;12.70;65.40;95332.88;5052142;28;21056;-68
2021/04/23 03:05:08;;;;;;;6.10;5.17;;;;;;;12.36;66.04;95348.22;5052668;28;20474;-66
2021/04/23 03:07:35;;;;;;;5.60;4.97;;;;;;;12.22;66.26;95368.88;5052208;28;20469;-68
2021/04/23 03:10:02;;;;;;;6.53;4.90;;;;;;;12.07;67.52;95366.16;5052156;28;21012;-66
2021/04/23 03:12:28;;;;;;;6.20;4.77;;;;;;;12.04;67.91;95373.75;5051900;28;20982;-66
2021/04/23 03:14:55;;;;;;;6.73;5.07;;;;;;;12.20;67.17;95375.44;5052970;28;20879;-65
2021/04/23 03:17:21;;;;;;;8.83;5.73;;;;;;;12.07;68.06;95375.88;5051843;28;20842;-67
2021/04/23 03:19:48;;;;;;;6.60;5.17;;;;;;;11.87;67.74;95380.97;5051867;28;20462;-66
2021/04/23 03:22:14;;;;;;;6.20;5.33;;;;;;;12.04;67.79;95382.41;5051078;28;20439;-66
2021/04/23 03:24:40;;;;;;;7.37;5.03;;;;;;;12.23;67.29;95380.19;5051404;28;20474;-67
2021/04/23 03:27:07;;;;;;;5.27;4.77;;;;;;;12.09;67.76;95379.03;5051486;28;20439;-65
2021/04/23 03:29:33;;;;;;;5.57;4.67;;;;;;;11.89;67.67;95386.78;5051634;28;21297;-68
2021/04/23 03:31:59;;;;;;;5.97;4.90;;;;;;;11.77;68.46;95401.94;5051014;28;20430;-67
2021/04/23 03:34:26;;;;;;;6.53;5.20;;;;;;;11.82;68.69;95394.09;5051763;28;20437;-66
2021/04/23 03:36:52;;;;;;;5.17;4.67;;;;;;;11.89;67.64;95390.22;5051081;28;20447;-67
2021/04/23 03:39:19;;;;;;;6.40;5.13;;;;;;;11.87;67.86;95387.03;5051334;28;20438;-66
2021/04/23 03:41:45;;;;;;;6.13;5.07;;;;;;;11.59;69.25;95394.34;5050738;28;20447;-65
2021/04/23 03:44:12;;;;;;;5.80;4.77;;;;;;;11.55;69.48;95395.91;5051338;28;20435;-68
2021/04/23 03:46:39;;;;;;;5.47;4.60;;;;;;;11.53;69.48;95398.75;5050940;28;20958;-69
2021/04/23 03:49:05;;;;;;;5.53;4.63;;;;;;;11.70;68.81;95401.31;5051685;28;20461;-69
2021/04/23 03:51:32;;;;;;;5.27;4.77;;;;;;;11.55;69.20;95403.78;5051442;28;20549;-67
2021/04/23 03:53:58;;;;;;;7.67;5.37;;;;;;;11.67;68.88;95394.75;5051904;28;20443;-67
2021/04/23 03:56:25;;;;;;;7.23;5.37;;;;;;;11.79;68.77;95419.00;5052049;28;20435;-68
2021/04/23 03:58:53;;;;;;;6.07;4.87;;;;;;;11.82;68.50;95421.13;5050210;28;20443;-67
2021/04/23 04:01:23;;;;;;;5.53;5.03;;;;;;;12.00;67.62;95425.22;5061566;28;20438;-70
2021/04/23 04:03:51;;;;;;;7.67;5.47;;;;;;;12.06;68.25;95418.97;5066834;28;21277;-66
2021/04/23 04:06:22;;;;;;;5.27;4.77;;;;;;;11.71;68.27;95418.66;5071190;28;20489;-65
2021/04/23 04:08:49;;;;;;;5.33;4.83;;;;;;;11.93;67.64;95427.25;5070644;28;20450;-68
2021/04/23 04:11:17;;;;;;;7.17;5.10;;;;;;;12.07;67.40;95434.47;5070374;28;20484;-72
2021/04/23 04:13:43;;;;;;;6.77;5.33;;;;;;;11.90;68.53;95438.25;5070823;28;20447;-69
2021/04/23 04:16:10;;;;;;;5.83;5.23;;;;;;;11.76;68.24;95426.56;5071807;28;20438;-67
2021/04/23 04:18:37;;;;;;;6.37;5.47;;;;;;;11.76;68.27;95400.31;5070546;28;20450;-67
2021/04/23 04:21:04;;;;;;;6.90;5.70;;;;;;;11.93;68.18;95419.38;5071565;28;20452;-68
2021/04/23 04:23:31;;;;;;;7.80;6.20;;;;;;;11.81;68.98;95424.78;5070392;28;20449;-67
2021/04/23 04:26:01;;;;;;;7.17;5.60;;;;;;;12.06;68.00;95438.13;5070242;28;20540;-64
2021/04/23 04:28:29;;;;;;;6.50;5.57;;;;;;;11.98;68.25;95435.97;5070308;28;20435;-63
2021/04/23 04:30:57;;;;;;;7.17;5.70;;;;;;;12.10;67.84;95433.16;5070136;28;20640;-68
2021/04/23 04:33:44;;;;;;;8.13;5.33;;;;;;;11.91;67.72;95429.34;5069356;28;20449;-64
2021/04/23 04:36:11;;;;;;;6.43;5.23;;;;;;;11.91;68.27;95435.41;5069971;28;20442;-69
2021/04/23 04:38:38;;;;;;;8.17;5.70;;;;;;;11.90;68.16;95422.50;5069762;28;20465;-65
2021/04/23 04:41:05;;;;;;;8.30;6.23;;;;;;;11.82;68.52;95431.63;5069102;28;20441;-68
2021/04/23 04:43:32;;;;;;;66.90;55.80;;;;;;;11.94;69.42;95431.47;5069567;28;20450;-64
2021/04/23 04:45:59;;;;;;;17.73;15.47;;;;;;;12.05;68.26;95435.75;5069871;28;20513;-67
2021/04/23 04:48:26;;;;;;;8.03;7.23;;;;;;;12.07;68.36;95439.72;5069360;28;20439;-68
2021/04/23 04:50:58;;;;;;;7.37;6.07;;;;;;;12.06;68.22;95439.97;5069882;28;20442;-65
2021/04/23 04:53:25;;;;;;;8.43;5.93;;;;;;;12.19;68.46;95437.69;5069964;28;20439;-65
2021/04/23 04:55:55;;;;;;;8.43;7.20;;;;;;;12.13;68.17;95440.56;5069747;28;20482;-64
2021/04/23 04:58:24;;;;;;;8.77;6.20;;;;;;;11.85;68.09;95452.13;5069614;28;20449;-68
2021/04/23 05:00:51;;;;;;;7.17;6.47;;;;;;;11.84;67.94;95434.00;5070277;28;20438;-66
2021/04/23 05:03:17;;;;;;;8.93;6.70;;;;;;;11.92;69.12;95451.91;5068961;28;20799;-69
2021/04/23 05:05:44;;;;;;;8.17;6.17;;;;;;;11.90;68.23;95461.88;5070081;28;20470;-65
2021/04/23 05:08:11;;;;;;;6.57;5.97;;;;;;;11.99;68.00;95457.75;5069833;28;20556;-66
2021/04/23 05:10:38;;;;;;;124.40;104.13;;;;;;;12.01;69.18;95456.47;5069830;28;20568;-66
2021/04/23 05:13:05;;;;;;;75.80;58.83;;;;;;;12.17;68.12;95454.78;5067398;28;20445;-70
2021/04/23 05:15:32;;;;;;;7.07;6.37;;;;;;;12.21;68.22;95450.59;5069803;28;20457;-66
2021/04/23 05:17:59;;;;;;;8.90;6.30;;;;;;;12.12;68.33;95462.59;5069211;28;20983;-69
2021/04/23 05:20:26;;;;;;;7.20;6.00;;;;;;;12.14;67.74;95460.50;5069937;28;20484;-68
2021/04/23 05:22:53;;;;;;;7.73;6.50;;;;;;;12.39;67.47;95470.44;5069077;28;20442;-67
2021/04/23 05:25:22;;;;;;;8.23;6.37;;;;;;;12.20;67.70;95470.03;5069672;28;20469;-66
2021/04/23 05:27:49;;;;;;;10.17;6.10;;;;;;;11.83;68.37;95469.16;5069367;28;20434;-67
2021/04/23 05:30:20;;;;;;;8.53;7.43;;;;;;;11.98;69.22;95466.69;5069740;28;20448;-64
2021/04/23 05:32:47;;;;;;;8.53;6.23;;;;;;;12.01;68.17;95476.69;5068847;28;20449;-65
2021/04/23 05:35:16;;;;;;;7.47;6.40;;;;;;;12.28;67.32;95482.69;5069246;28;20446;-65
2021/04/23 05:37:43;;;;;;;7.60;5.90;;;;;;;12.05;67.30;95477.78;5068160;28;20442;-64
2021/04/23 05:40:13;;;;;;;7.43;6.63;;;;;;;12.06;68.62;95484.63;5070151;28;20964;-65
2021/04/23 05:42:43;;;;;;;7.17;6.47;;;;;;;12.13;68.54;95479.97;5069605;28;20846;-64
2021/04/23 05:45:10;;;;;;;7.77;6.47;;;;;;;12.15;68.12;95480.50;5070492;28;20478;-65
2021/04/23 05:47:39;;;;;;;7.90;6.10;;;;;;;12.19;67.57;95485.00;5070812;28;20470;-70
2021/04/23 05:50:09;;;;;;;7.50;6.10;;;;;;;12.30;67.16;95490.34;5070077;28;20885;-65
2021/04/23 05:52:36;;;;;;;7.50;6.27;;;;;;;12.24;66.63;95481.63;5069492;28;20457;-66
2021/04/23 05:55:04;;;;;;;7.97;5.80;;;;;;;12.34;66.45;95492.19;5070352;28;20442;-64
2021/04/23 05:57:30;;;;;;;7.60;6.70;;;;;;;12.37;66.92;95493.53;5069904;28;20442;-65
2021/04/23 05:59:57;;;;;;;8.33;6.67;;;;;;;12.30;66.67;95493.75;5070354;28;20446;-64
2021/04/23 06:02:23;;;;;;;9.20;6.90;;;;;;;12.50;66.58;95490.50;5071203;28;20804;-65
2021/04/23 06:04:50;;;;;;;8.90;6.93;;;;;;;12.31;66.50;95497.97;5070128;28;20486;-65
2021/04/23 06:07:16;;;;;;;9.07;7.03;;;;;;;12.46;66.56;95500.72;5069437;28;20821;-64
2021/04/23 06:09:43;;;;;;;8.20;7.00;;;;;;;12.62;66.45;95505.03;5069600;28;20855;-65
2021/04/23 06:12:09;;;;;;;9.30;7.13;;;;;;;12.57;66.61;95512.88;5069019;28;20936;-65
2021/04/23 06:14:35;;;;;;;9.43;7.17;;;;;;;12.51;66.26;95507.84;5069550;28;20438;-65
2021/04/23 06:17:04;;;;;;;8.80;7.10;;;;;;;12.40;67.09;95511.44;5069189;28;20446;-65
2021/04/23 06:19:33;;;;;;;8.50;6.40;;;;;;;12.44;65.80;95502.81;5069689;28;20982;-66
2021/04/23 06:22:00;;;;;;;8.87;6.53;;;;;;;12.47;65.75;95502.28;5068956;28;20556;-67
2021/04/23 06:24:26;;;;;;;8.00;6.90;;;;;;;12.52;65.71;95504.94;5069273;28;20441;-67
2021/04/23 06:26:53;;;;;;;9.33;7.20;;;;;;;12.52;65.89;95510.22;5069042;28;20425;-63
2021/04/23 06:29:19;;;;;;;9.47;7.87;;;;;;;12.55;65.96;95501.84;5069595;28;20441;-65
2021/04/23 06:31:46;;;;;;;12.97;8.37;;;;;;;12.58;66.39;95514.47;5069019;28;20453;-65
2021/04/23 06:34:12;;;;;;;8.53;7.33;;;;;;;12.49;65.68;95505.47;5069486;28;20462;-65
2021/04/23 06:36:40;;;;;;;9.83;7.03;;;;;;;12.60;64.51;95507.13;5068977;28;20426;-65
2021/04/23 06:39:19;;;;;;;11.13;7.50;;;;;;;12.42;64.86;95525.91;5068350;28;20848;-65
2021/04/23 06:41:46;;;;;;;8.87;7.20;;;;;;;12.50;66.29;95517.56;5068667;28;20959;-64
2021/04/23 06:44:14;;;;;;;8.80;7.27;;;;;;;12.53;66.45;95517.06;5069411;28;20445;-67
2021/04/23 06:46:41;;;;;;;10.07;7.30;;;;;;;12.61;65.87;95503.44;5068870;28;20466;-66
2021/04/23 06:49:08;;;;;;;47.67;36.03;;;;;;;12.80;64.63;95512.50;5069428;28;20442;-67
2021/04/23 06:51:36;;;;;;;22.63;14.60;;;;;;;12.85;65.05;95515.16;5068627;28;20955;-67
2021/04/23 06:54:05;;;;;;;9.77;7.20;;;;;;;12.80;64.77;95520.41;5069655;28;20438;-67
2021/04/23 06:56:32;;;;;;;8.60;6.90;;;;;;;12.67;65.26;95517.41;5069206;28;20434;-66
2021/04/23 06:58:59;;;;;;;21.97;14.37;;;;;;;12.58;65.82;95516.28;5068035;28;20491;-67
2021/04/23 07:01:25;;;;;;;8.70;7.80;;;;;;;12.70;65.73;95532.69;5072546;28;20445;-67
2021/04/23 07:03:52;;;;;;;10.90;7.60;;;;;;;12.95;65.73;95522.34;5071060;28;20480;-66
2021/04/23 07:06:19;;;;;;;10.80;7.30;;;;;;;12.85;66.17;95515.16;5072812;28;20997;-67
2021/04/23 07:08:46;;;;;;;10.60;8.20;;;;;;;13.11;66.69;95530.09;5072132;28;20434;-67
2021/04/23 07:11:13;;;;;;;13.07;8.47;;;;;;;13.23;66.87;95531.72;5072307;28;20465;-66
2021/04/23 07:13:39;;;;;;;11.63;8.97;;;;;;;13.28;66.95;95527.28;5072253;28;20430;-67
2021/04/23 07:16:06;;;;;;;12.20;8.60;;;;;;;13.13;66.61;95528.00;5071357;28;20434;-67
2021/04/23 07:18:32;;;;;;;12.27;8.20;;;;;;;13.09;66.84;95532.19;5072183;28;20437;-66
2021/04/23 07:20:59;;;;;;;10.20;8.37;;;;;;;12.95;67.21;95528.41;5072664;28;20437;-68
2021/04/23 07:23:25;;;;;;;9.43;7.20;;;;;;;13.02;67.25;95525.53;5070824;28;20986;-69
2021/04/23 07:25:52;;;;;;;11.50;6.90;;;;;;;13.06;66.49;95526.63;5073140;28;20465;-68
2021/04/23 07:28:18;;;;;;;6.87;6.07;;;;;;;12.92;65.96;95523.63;5071922;28;20893;-68
2021/04/23 07:30:45;;;;;;;7.87;6.93;;;;;;;13.03;66.85;95533.19;5072454;28;20480;-68
2021/04/23 07:33:15;;;;;;;7.40;6.67;;;;;;;13.16;67.10;95538.00;5071475;28;20434;-68
2021/04/23 07:35:44;;;;;;;10.03;6.63;;;;;;;13.09;66.64;95536.66;5072253;28;20808;-66
2021/04/23 07:38:11;;;;;;;8.27;6.87;;;;;;;13.28;67.16;95544.91;5071817;28;20457;-67
2021/04/23 07:40:38;;;;;;;7.13;5.93;;;;;;;13.35;65.43;95540.19;5072385;28;20496;-67
2021/04/23 07:43:05;;;;;;;9.47;5.77;;;;;;;13.37;65.71;95538.09;5071663;28;20499;-68
2021/04/23 07:45:52;;;;;;;9.47;5.50;;;;;;;13.54;65.56;95541.34;5072009;28;20466;-66
2021/04/23 07:48:20;;;;;;;11.10;6.50;;;;;;;13.69;66.66;95541.38;5071606;28;20553;-68
2021/04/23 07:50:48;;;;;;;9.90;6.43;;;;;;;13.57;66.26;95527.66;5071779;28;20434;-67
2021/04/23 07:53:14;;;;;;;7.60;6.80;;;;;;;13.88;66.10;95530.13;5071358;28;20532;-68
2021/04/23 07:55:41;;;;;;;21.77;12.67;;;;;;;13.88;64.70;95537.22;5071668;28;20958;-67
2021/04/23 07:58:10;;;;;;;7.13;6.20;;;;;;;13.83;64.85;95529.31;5071558;28;20492;-68
2021/04/23 08:00:36;;;;;;;7.60;6.43;;;;;;;13.87;63.46;95530.38;5072052;28;20450;-68
2021/04/23 08:03:03;;;;;;;6.97;5.30;;;;;;;13.72;63.04;95530.34;5071616;28;20517;-69
2021/04/23 08:05:30;;;;;;;6.10;5.50;;;;;;;13.69;64.16;95530.84;5071957;28;20477;-67
2021/04/23 08:08:03;;;;;;;6.60;5.20;;;;;;;13.20;64.26;95518.03;5071132;28;20507;-68
2021/04/23 08:10:30;;;;;;;7.27;4.70;;;;;;;13.00;64.90;95538.13;5071654;28;20560;-67
2021/04/23 08:12:57;;;;;;;5.60;4.53;;;;;;;12.91;65.65;95535.22;5069659;28;20875;-67
2021/04/23 08:15:25;;;;;;;8.47;4.07;;;;;;;12.96;64.48;95543.13;5071485;28;20434;-69
2021/04/23 08:17:54;;;;;;;4.77;3.70;;;;;;;12.79;64.17;95545.09;5071037;28;20440;-68
2021/04/23 08:20:21;;;;;;;4.73;3.73;;;;;;;12.89;63.53;95542.56;5071330;28;20856;-67
2021/04/23 08:22:48;;;;;;;5.40;4.30;;;;;;;12.78;64.89;95548.78;5070749;28;20437;-68
2021/04/23 08:25:17;;;;;;;4.80;3.67;;;;;;;12.68;65.60;95550.56;5071287;28;20478;-67
2021/04/23 08:27:44;;;;;;;6.20;4.20;;;;;;;12.53;65.86;95540.72;5071502;28;20533;-67
2021/04/23 08:30:12;;;;;;;7.97;4.60;;;;;;;12.66;66.83;95542.94;5070959;28;20453;-67
2021/04/23 08:32:39;;;;;;;5.60;4.50;;;;;;;12.62;66.52;95547.09;5071592;28;20448;-67
2021/04/23 08:35:08;;;;;;;5.03;3.97;;;;;;;12.73;65.35;95543.50;5071546;28;20438;-67
2021/04/23 08:37:35;;;;;;;5.40;4.73;;;;;;;12.77;65.31;95547.19;5072521;28;20441;-68
2021/04/23 08:40:05;;;;;;;10.33;4.60;;;;;;;13.08;65.11;95543.72;5074311;28;20935;-69
2021/04/23 08:42:34;;;;;;;5.30;3.30;;;;;;;12.90;64.67;95533.59;5070720;28;20481;-68
2021/04/23 08:45:03;;;;;;;5.30;4.47;;;;;;;13.32;64.27;95546.75;5070931;28;20664;-68
2021/04/23 08:47:30;;;;;;;5.87;3.57;;;;;;;12.93;63.48;95538.38;5070764;28;20441;-68
2021/04/23 08:49:58;;;;;;;5.20;4.10;;;;;;;12.98;62.88;95537.59;5073259;28;21040;-68
2021/04/23 08:52:26;;;;;;;6.00;3.37;;;;;;;12.83;63.03;95543.56;5070210;28;20884;-68
2021/04/23 08:54:54;;;;;;;5.23;3.77;;;;;;;13.11;62.90;95545.06;5070540;28;20963;-67
2021/04/23 08:57:25;;;;;;;4.27;3.73;;;;;;;13.40;61.95;95548.91;5070103;28;20442;-69
2021/04/23 08:59:52;;;;;;;5.17;4.63;;;;;;;13.47;62.98;95543.41;5070426;28;20990;-67
2021/04/23 09:02:18;;;;;;;4.23;3.30;;;;;;;13.56;62.04;95542.66;5069707;28;20936;-68
2021/04/23 09:04:45;;;;;;;4.40;3.43;;;;;;;13.25;61.81;95540.16;5069258;28;20521;-69
2021/04/23 09:07:12;;;;;;;3.80;2.73;;;;;;;13.28;60.42;95534.38;5068903;28;20458;-67
2021/04/23 09:09:42;;;;;;;4.80;2.50;;;;;;;13.13;59.15;95533.25;5070476;28;20465;-68
2021/04/23 09:12:18;;;;;;;4.50;2.87;;;;;;;13.47;59.61;95533.66;5070263;28;20502;-68
2021/04/23 09:14:48;;;;;;;3.90;2.70;;;;;;;13.34;59.68;95513.06;5070434;28;20525;-70
2021/04/23 09:17:25;;;;;;;3.10;2.40;;;;;;;13.39;58.44;95542.06;5069953;28;20446;-67
2021/04/23 09:19:53;;;;;;;4.37;2.53;;;;;;;13.20;57.71;95548.81;5070318;28;20461;-67
2021/04/23 09:22:29;;;;;;;3.50;2.17;;;;;;;13.60;56.42;95545.56;5068214;28;20531;-69
2021/04/23 09:24:59;;;;;;;2.97;2.17;;;;;;;13.31;56.12;95544.38;5070052;28;20524;-70
2021/04/23 09:27:31;;;;;;;3.70;2.83;;;;;;;13.33;56.69;95537.81;5069539;28;20928;-69
2021/04/23 09:30:03;;;;;;;4.33;2.90;;;;;;;13.43;57.19;95544.97;5070023;28;20477;-68
2021/04/23 09:32:40;;;;;;;3.00;2.40;;;;;;;13.37;56.59;95538.91;5069258;28;20446;-66
2021/04/23 09:35:28;;;;;;;5.70;2.70;;;;;;;13.51;56.22;95528.69;5069978;28;20908;-68
2021/04/23 09:38:11;;;;;;;4.30;3.03;;;;;;;13.43;57.85;95537.09;5069646;28;20445;-69
2021/04/23 09:40:37;;;;;;;5.13;2.90;;;;;;;13.39;57.98;95539.44;5070217;28;20434;-67
2021/04/23 09:43:06;;;;;;;4.80;2.80;;;;;;;13.41;58.12;95542.59;5069281;28;20521;-67
2021/04/23 09:45:48;;;;;;;6.13;2.60;;;;;;;13.56;57.83;95547.13;5070402;28;20462;-67
2021/04/23 09:48:22;;;;;;;5.73;4.07;;;;;;;13.55;58.41;95540.28;5069541;28;20437;-68
2021/04/23 09:50:50;;;;;;;3.90;3.00;;;;;;;13.45;59.18;95550.78;5070262;28;20450;-68
2021/04/23 09:53:16;;;;;;;3.97;3.10;;;;;;;13.39;58.60;95536.00;5069042;28;20540;-68
2021/04/23 09:55:43;;;;;;;4.83;2.93;;;;;;;13.41;58.35;95555.75;5070011;28;21022;-66
2021/04/23 09:58:14;;;;;;;4.43;2.70;;;;;;;13.29;58.79;95551.75;5069330;28;20438;-67
2021/04/23 10:00:41;;;;;;;5.13;2.93;;;;;;;13.51;58.86;95547.91;5069944;28;20426;-68
2021/04/23 10:03:08;;;;;;;4.60;2.90;;;;;;;13.40;58.43;95548.09;5069074;28;20478;-68
2021/04/23 10:05:43;;;;;;;4.40;3.23;;;;;;;13.45;58.68;95545.53;5069590;28;20485;-68
2021/04/23 10:08:12;;;;;;;4.33;3.10;;;;;;;13.18;59.07;95525.38;5069302;28;20880;-67
2021/04/23 10:10:50;;;;;;;5.60;3.23;;;;;;;13.19;58.78;95541.97;5069634;28;20947;-67
2021/04/23 10:13:28;;;;;;;5.50;3.07;;;;;;;13.81;58.14;95539.31;5070578;28;20438;-67
2021/04/23 10:15:54;;;;;;;4.53;3.33;;;;;;;13.82;57.29;95540.91;5069891;28;20477;-67
2021/04/23 10:18:21;;;;;;;7.90;4.10;;;;;;;13.95;56.74;95540.41;5069396;28;20430;-67
2021/04/23 10:20:49;;;;;;;4.23;3.47;;;;;;;14.07;56.19;95538.31;5071383;28;20982;-67
2021/04/23 10:23:19;;;;;;;4.87;4.00;;;;;;;14.20;57.05;95537.81;5069377;28;20466;-68
2021/04/23 10:25:46;;;;;;;6.37;3.93;;;;;;;14.17;55.37;95543.63;5068289;28;20939;-68
2021/04/23 10:28:26;;;;;;;8.53;4.07;;;;;;;14.18;56.07;95539.91;5069127;28;20499;-66
2021/04/23 10:30:55;;;;;;;4.63;3.80;;;;;;;14.08;55.59;95539.91;5069289;28;20437;-67
2021/04/23 10:33:24;;;;;;;4.17;3.30;;;;;;;14.16;55.53;95542.00;5069171;28;20513;-67
2021/04/23 10:35:55;;;;;;;4.70;4.13;;;;;;;14.22;55.41;95533.88;5071619;28;20476;-68
2021/04/23 10:38:25;;;;;;;5.20;3.63;;;;;;;14.45;56.22;95537.09;5073242;28;20465;-67
2021/04/23 10:40:55;;;;;;;4.70;3.53;;;;;;;14.59;54.74;95530.22;5072037;28;20495;-67
2021/04/23 10:43:29;;;;;;;7.33;4.73;;;;;;;14.60;52.80;95540.50;5072915;28;20529;-67
2021/04/23 10:46:04;;;;;;;5.23;3.90;;;;;;;14.29;52.58;95546.81;5072978;28;20485;-66
2021/04/23 10:48:36;;;;;;;5.67;4.43;;;;;;;14.45;52.79;95545.00;5072875;28;20820;-68
2021/04/23 10:51:27;;;;;;;5.43;4.00;;;;;;;14.03;53.92;95538.03;5073032;28;20437;-68
2021/04/23 10:54:16;;;;;;;5.30;4.20;;;;;;;14.35;53.63;95542.34;5072400;28;20497;-66
2021/04/23 10:56:53;;;;;;;5.03;3.40;;;;;;;14.52;51.58;95534.97;5072907;28;20492;-68
2021/04/23 10:59:20;;;;;;;4.90;4.40;;;;;;;14.52;52.07;95538.41;5073460;28;20537;-69
2021/04/23 11:01:49;;;;;;;8.87;4.60;;;;;;;14.63;52.22;95540.00;5072345;28;20477;-66
2021/04/23 11:04:18;;;;;;;5.53;4.00;;;;;;;14.27;52.04;95532.31;5072699;28;20434;-67
2021/04/23 11:06:59;;;;;;;4.70;4.10;;;;;;;14.79;51.64;95528.38;5072359;28;21017;-68
2021/04/23 11:09:26;;;;;;;6.07;5.00;;;;;;;14.84;51.49;95525.72;5072631;28;20473;-66
2021/04/23 11:12:08;;;;;;;4.37;3.03;;;;;;;14.38;50.75;95521.50;5072610;28;20422;-67
2021/04/23 11:14:36;;;;;;;4.67;3.27;;;;;;;14.35;51.17;95516.78;5072575;28;20445;-67
2021/04/23 11:17:19;;;;;;;4.87;3.93;;;;;;;14.82;50.31;95513.81;5072439;28;20438;-68
2021/04/23 11:19:51;;;;;;;5.83;4.30;;;;;;;14.93;50.31;95515.41;5072975;28;20445;-69
2021/04/23 11:22:24;;;;;;;6.80;4.13;;;;;;;15.06;50.21;95505.09;5072937;28;20448;-69
2021/04/23 11:25:13;;;;;;;4.83;3.60;;;;;;;14.90;49.16;95514.09;5071581;28;20842;-67
2021/04/23 11:28:12;;;;;;;4.03;2.93;;;;;;;15.01;49.06;95499.81;5072033;28;20433;-69
2021/04/23 11:31:06;;;;;;;5.00;2.70;;;;;;;14.58;48.60;95513.59;5070872;28;20751;-67
2021/04/23 11:34:04;;;;;;;3.83;2.80;;;;;;;15.38;47.26;95503.94;5073617;28;20480;-67
2021/04/23 11:36:37;;;;;;;53.73;28.63;;;;;;;15.62;47.35;95503.06;5073558;28;20914;-68
2021/04/23 11:39:07;;;;;;;4.37;3.50;;;;;;;15.34;47.20;95505.53;5072914;28;20492;-67
2021/04/23 11:41:35;;;;;;;6.43;3.70;;;;;;;15.75;46.90;95501.66;5071862;28;20532;-69